createdAt,value
2018-06-02T00:00:44.024Z,99.99
2018-06-02T00:01:44.090Z,99.99
2018-06-02T00:02:44.146Z,99.99
2018-06-02T00:03:44.211Z,99.99
2018-06-02T00:04:44.278Z,99.99
2018-06-02T00:05:44.346Z,99.99
2018-06-02T00:06:44.417Z,99.99
2018-06-02T00:07:44.473Z,99.99
2018-06-02T00:08:44.538Z,99.99
2018-06-02T00:09:44.605Z,99.99
2018-06-02T00:10:44.675Z,99.99
2018-06-02T00:11:44.742Z,99.99
2018-06-02T00:12:44.798Z,99.99
2018-06-02T00:13:44.866Z,99.99
2018-06-02T00:14:44.930Z,99.99
2018-06-02T00:15:45.002Z,99.99
2018-06-02T00:16:45.071Z,99.99
2018-06-02T00:17:45.127Z,99.99
2018-06-02T00:18:45.190Z,99.99
2018-06-02T00:19:45.266Z,99.99
2018-06-02T00:20:45.338Z,99.99
2018-06-02T00:21:45.386Z,99.99
2018-06-02T00:22:45.455Z,99.99
2018-06-02T00:23:45.519Z,99.99
2018-06-02T00:24:45.587Z,99.99
2018-06-02T00:25:45.655Z,99.99
2018-06-02T00:26:45.723Z,99.99
2018-06-02T00:27:45.783Z,99.99
2018-06-02T00:28:45.847Z,99.99
2018-06-02T00:29:45.911Z,99.99
2018-06-02T00:30:45.987Z,99.99
2018-06-02T00:31:46.052Z,99.99
2018-06-02T00:32:46.107Z,99.99
2018-06-02T00:33:46.176Z,99.99
2018-06-02T00:34:46.239Z,99.99
2018-06-02T00:35:46.304Z,99.99
2018-06-02T00:36:46.680Z,99.99
2018-06-02T00:37:46.435Z,99.99
2018-06-02T00:38:46.508Z,99.99
2018-06-02T00:39:46.568Z,99.99
2018-06-02T00:40:46.635Z,99.99
2018-06-02T00:41:46.704Z,99.99
2018-06-02T00:42:46.768Z,99.99
2018-06-02T00:43:46.828Z,99.99
2018-06-02T00:44:46.892Z,99.99
2018-06-02T00:45:46.960Z,99.99
2018-06-02T00:46:47.032Z,99.99
2018-06-02T00:47:47.104Z,99.99
2018-06-02T00:48:47.156Z,99.99
2018-06-02T00:49:47.220Z,99.99
2018-06-02T00:50:47.284Z,99.99
2018-06-02T00:51:47.373Z,99.99
2018-06-02T00:52:47.412Z,99.99
2018-06-02T00:53:47.485Z,99.99
2018-06-02T00:54:47.548Z,99.99
2018-06-02T00:55:47.609Z,99.99
2018-06-02T00:56:47.685Z,99.99
2018-06-02T00:57:47.748Z,99.99
2018-06-02T00:58:47.809Z,99.99
2018-06-02T00:59:47.885Z,99.99
2018-06-02T01:00:47.941Z,99.99
2018-06-02T01:01:48.020Z,99.99
2018-06-02T01:02:48.076Z,99.99
2018-06-02T01:03:48.137Z,99.99
2018-06-02T01:04:48.201Z,99.99
2018-06-02T01:05:48.261Z,99.99
2018-06-02T01:06:48.441Z,99.99
2018-06-02T01:07:48.397Z,99.99
2018-06-02T01:08:48.462Z,99.99
2018-06-02T01:09:48.529Z,99.99
2018-06-02T01:10:48.593Z,99.99
2018-06-02T01:11:48.673Z,99.99
2018-06-02T01:12:48.729Z,99.99
2018-06-02T01:13:48.789Z,99.99
2018-06-02T01:14:48.852Z,99.99
2018-06-02T01:15:48.929Z,99.99
2018-06-02T01:16:48.998Z,99.99
2018-06-02T01:17:49.072Z,99.99
2018-06-02T01:18:49.117Z,99.99
2018-06-02T01:19:49.181Z,99.99
2018-06-02T01:20:49.253Z,99.99
2018-06-02T01:21:49.462Z,99.99
2018-06-02T01:22:49.378Z,99.99
2018-06-02T01:23:49.438Z,99.99
2018-06-02T01:24:49.505Z,99.99
2018-06-02T01:25:49.574Z,99.99
2018-06-02T01:26:49.654Z,99.99
2018-06-02T01:27:49.713Z,99.99
2018-06-02T01:28:49.770Z,99.99
2018-06-02T01:29:49.835Z,99.99
2018-06-02T01:30:49.910Z,99.99
2018-06-02T01:31:49.970Z,99.99
2018-06-02T01:32:50.046Z,99.99
2018-06-02T01:33:50.094Z,99.99
2018-06-02T01:34:50.166Z,99.99
2018-06-02T01:35:50.226Z,99.99
2018-06-02T01:36:50.594Z,99.99
2018-06-02T01:37:50.358Z,99.99
2018-06-02T01:38:50.422Z,99.99
2018-06-02T01:39:50.482Z,99.99
2018-06-02T01:40:50.555Z,99.99
2018-06-02T01:41:50.623Z,99.99
2018-06-02T01:42:50.702Z,99.99
2018-06-02T01:43:50.755Z,99.99
2018-06-02T01:44:50.810Z,99.99
2018-06-02T01:45:50.876Z,99.99
2018-06-02T01:46:50.950Z,99.99
2018-06-02T01:47:51.015Z,99.99
2018-06-02T01:48:51.074Z,99.99
2018-06-02T01:49:51.139Z,99.99
2018-06-02T01:50:51.203Z,99.99
2018-06-02T01:51:51.577Z,99.99
2018-06-02T01:52:51.339Z,99.99
2018-06-02T01:53:51.407Z,99.99
2018-06-02T01:54:51.466Z,99.99
2018-06-02T01:55:51.531Z,99.99
2018-06-02T01:56:51.603Z,99.99
2018-06-02T01:57:51.667Z,99.99
2018-06-02T01:58:51.734Z,99.99
2018-06-02T01:59:51.799Z,99.99
2018-06-02T02:00:51.859Z,99.99
2018-06-02T02:01:51.931Z,99.99
2018-06-02T02:02:51.995Z,99.99
2018-06-02T02:03:52.052Z,99.99
2018-06-02T02:04:52.119Z,99.99
2018-06-02T02:05:52.191Z,99.99
2018-06-02T02:06:52.253Z,99.99
2018-06-02T02:07:52.339Z,99.99
2018-06-02T02:08:52.383Z,99.99
2018-06-02T02:09:52.447Z,99.99
2018-06-02T02:10:52.511Z,99.99
2018-06-02T02:11:52.579Z,99.99
2018-06-02T02:12:52.655Z,99.99
2018-06-02T02:13:52.719Z,99.99
2018-06-02T02:14:52.776Z,99.99
2018-06-02T02:15:52.839Z,99.99
2018-06-02T02:16:52.912Z,99.99
2018-06-02T02:17:52.975Z,99.99
2018-06-02T02:18:53.043Z,99.99
2018-06-02T02:19:53.099Z,99.99
2018-06-02T02:20:53.168Z,99.99
2018-06-02T02:21:53.232Z,99.99
2018-06-02T02:22:53.332Z,99.99
2018-06-02T02:23:53.371Z,99.99
2018-06-02T02:24:53.424Z,99.99
2018-06-02T02:25:53.508Z,99.99
2018-06-02T02:26:53.567Z,99.99
2018-06-02T02:27:53.628Z,99.99
2018-06-02T02:28:53.704Z,99.99
2018-06-02T02:29:53.764Z,99.99
2018-06-02T02:30:53.821Z,99.99
2018-06-02T02:31:53.884Z,99.99
2018-06-02T02:32:53.988Z,99.99
2018-06-02T02:33:54.020Z,99.99
2018-06-02T02:34:54.080Z,99.99
2018-06-02T02:35:54.156Z,99.99
2018-06-02T02:36:54.218Z,99.99
2018-06-02T02:37:54.616Z,99.99
2018-06-02T02:38:54.352Z,99.99
2018-06-02T02:39:54.414Z,99.99
2018-06-02T02:40:54.476Z,99.99
2018-06-02T02:41:54.537Z,99.99
2018-06-02T02:42:54.613Z,99.99
2018-06-02T02:43:54.790Z,99.99
2018-06-02T02:44:54.741Z,99.99
2018-06-02T02:45:54.809Z,99.99
2018-06-02T02:46:54.870Z,99.99
2018-06-02T02:47:54.941Z,99.99
2018-06-02T02:48:55.021Z,99.99
2018-06-02T02:49:55.101Z,99.99
2018-06-02T02:50:55.140Z,99.99
2018-06-02T02:51:55.196Z,99.99
2018-06-02T02:52:55.257Z,99.99
2018-06-02T02:53:55.487Z,99.99
2018-06-02T02:54:55.396Z,99.99
2018-06-02T02:55:55.453Z,99.99
2018-06-02T02:56:55.533Z,99.99
2018-06-02T02:57:55.599Z,99.99
2018-06-02T02:58:55.690Z,99.99
2018-06-02T02:59:55.729Z,99.99
2018-06-02T03:00:55.790Z,99.99
2018-06-02T03:01:55.849Z,99.99
2018-06-02T03:02:55.917Z,99.99
2018-06-02T03:03:56.025Z,99.99
2018-06-02T03:04:56.215Z,99.99
2018-06-02T03:05:56.151Z,99.99
2018-06-02T03:06:56.257Z,99.99
2018-06-02T03:07:56.277Z,99.99
2018-06-02T03:08:56.337Z,99.99
2018-06-02T03:09:56.649Z,99.99
2018-06-02T03:10:56.446Z,99.99
2018-06-02T03:11:56.502Z,99.99
2018-06-02T03:12:56.578Z,99.99
2018-06-02T03:13:56.634Z,99.99
2018-06-02T03:14:56.716Z,99.99
2018-06-02T03:15:56.778Z,99.99
2018-06-02T03:16:56.842Z,99.99
2018-06-02T03:17:56.902Z,99.99
2018-06-02T03:18:56.966Z,99.99
2018-06-02T03:19:57.040Z,99.99
2018-06-02T03:20:57.102Z,99.99
2018-06-02T03:21:57.158Z,99.99
2018-06-02T03:22:57.226Z,99.99
2018-06-02T03:23:57.286Z,99.99
2018-06-02T03:24:57.718Z,99.99
2018-06-02T03:25:57.418Z,99.99
2018-06-02T03:26:57.482Z,99.99
2018-06-02T03:27:57.564Z,99.99
2018-06-02T03:28:57.625Z,99.99
2018-06-02T03:29:57.680Z,99.99
2018-06-02T03:30:57.775Z,99.99
2018-06-02T03:31:57.810Z,99.99
2018-06-02T03:32:57.875Z,99.99
2018-06-02T03:33:57.961Z,99.99
2018-06-02T03:34:58.011Z,99.99
2018-06-02T03:35:58.107Z,99.99
2018-06-02T03:36:58.143Z,99.99
2018-06-02T03:37:58.212Z,99.99
2018-06-02T03:38:58.271Z,99.99
2018-06-02T03:39:58.355Z,99.99
2018-06-02T03:40:58.430Z,99.99
2018-06-02T03:41:58.487Z,99.99
2018-06-02T03:42:58.534Z,99.99
2018-06-02T03:43:58.610Z,99.99
2018-06-02T03:44:58.664Z,99.99
2018-06-02T03:45:58.755Z,99.99
2018-06-02T03:46:58.810Z,99.99
2018-06-02T03:47:58.863Z,99.99
2018-06-02T03:48:58.927Z,99.99
2018-06-02T03:49:58.999Z,99.99
2018-06-02T03:50:59.067Z,99.99
2018-06-02T03:51:59.139Z,99.99
2018-06-02T03:52:59.190Z,99.99
2018-06-02T03:53:59.251Z,99.99
2018-06-02T03:54:59.315Z,99.99
2018-06-02T03:55:59.543Z,99.99
2018-06-02T03:56:59.451Z,99.99
2018-06-02T03:57:59.511Z,99.99
2018-06-02T03:58:59.583Z,99.99
2018-06-02T03:59:59.647Z,99.99
2018-06-02T04:00:59.723Z,99.99
2018-06-02T04:01:59.800Z,99.99
2018-06-02T04:02:59.839Z,99.99
2018-06-02T04:03:59.912Z,99.99
2018-06-02T04:04:59.984Z,99.99
2018-06-02T04:06:00.060Z,99.99
2018-06-02T04:07:00.112Z,99.99
2018-06-02T04:08:00.172Z,99.99
2018-06-02T04:09:00.246Z,99.99
2018-06-02T04:10:00.301Z,99.99
2018-06-02T04:11:00.528Z,99.99
2018-06-02T04:12:00.435Z,99.99
2018-06-02T04:13:00.500Z,99.99
2018-06-02T04:14:00.564Z,99.99
2018-06-02T04:15:00.632Z,99.99
2018-06-02T04:16:00.714Z,99.99
2018-06-02T04:17:00.772Z,99.99
2018-06-02T04:18:00.833Z,99.99
2018-06-02T04:19:00.896Z,99.99
2018-06-02T04:20:00.960Z,99.99
2018-06-02T04:21:01.036Z,99.99
2018-06-02T04:22:01.101Z,99.99
2018-06-02T04:23:01.157Z,99.99
2018-06-02T04:24:01.220Z,99.99
2018-06-02T04:25:01.292Z,99.99
2018-06-02T04:26:01.544Z,99.99
2018-06-02T04:27:01.413Z,99.99
2018-06-02T04:28:01.489Z,99.99
2018-06-02T04:29:01.552Z,99.99
2018-06-02T04:30:01.613Z,99.99
2018-06-02T04:31:01.689Z,99.99
2018-06-02T04:32:01.753Z,99.99
2018-06-02T04:33:01.821Z,99.99
2018-06-02T04:34:01.877Z,99.99
2018-06-02T04:35:01.949Z,99.99
2018-06-02T04:36:02.021Z,99.99
2018-06-02T04:37:02.089Z,99.99
2018-06-02T04:38:02.141Z,99.99
2018-06-02T04:39:02.205Z,99.99
2018-06-02T04:40:02.269Z,99.99
2018-06-02T04:41:02.359Z,99.99
2018-06-02T04:42:02.403Z,99.99
2018-06-02T04:43:02.465Z,99.99
2018-06-02T04:44:02.533Z,99.99
2018-06-02T04:45:02.600Z,99.99
2018-06-02T04:46:02.673Z,99.99
2018-06-02T04:47:02.742Z,99.99
2018-06-02T04:48:02.790Z,99.99
2018-06-02T04:49:02.866Z,99.99
2018-06-02T04:50:02.926Z,99.99
2018-06-02T04:51:03.006Z,99.99
2018-06-02T04:52:03.067Z,99.99
2018-06-02T04:53:03.130Z,99.99
2018-06-02T04:54:03.192Z,99.99
2018-06-02T04:55:03.258Z,99.99
2018-06-02T04:56:03.327Z,99.99
2018-06-02T04:57:03.402Z,99.99
2018-06-02T04:58:03.458Z,99.99
2018-06-02T04:59:03.518Z,99.99
2018-06-02T05:00:03.590Z,99.99
2018-06-02T05:01:03.650Z,99.99
2018-06-02T05:02:03.741Z,99.99
2018-06-02T05:03:03.798Z,99.99
2018-06-02T05:04:03.850Z,99.99
2018-06-02T05:05:03.998Z,99.99
2018-06-02T05:06:03.974Z,99.99
2018-06-02T05:07:04.047Z,99.99
2018-06-02T05:08:04.118Z,99.99
2018-06-02T05:09:04.174Z,99.99
2018-06-02T05:10:04.238Z,99.99
2018-06-02T05:11:04.303Z,99.99
2018-06-02T05:12:04.387Z,99.99
2018-06-02T05:13:04.447Z,99.99
2018-06-02T05:14:04.508Z,99.99
2018-06-02T05:15:04.618Z,99.99
2018-06-02T05:16:04.637Z,99.99
2018-06-02T05:17:04.716Z,99.99
2018-06-02T05:18:04.773Z,99.99
2018-06-02T05:19:04.831Z,99.99
2018-06-02T05:20:04.900Z,99.99
2018-06-02T05:21:04.968Z,99.99
2018-06-02T05:22:05.045Z,99.99
2018-06-02T05:23:05.104Z,99.99
2018-06-02T05:24:05.159Z,99.99
2018-06-02T05:25:05.224Z,99.99
2018-06-02T05:26:05.289Z,99.99
2018-06-02T05:27:05.365Z,99.99
2018-06-02T05:28:05.427Z,99.99
2018-06-02T05:29:05.500Z,99.99
2018-06-02T05:30:05.552Z,99.99
2018-06-02T05:31:05.619Z,99.99
2018-06-02T05:32:05.692Z,99.99
2018-06-02T05:33:05.756Z,99.99
2018-06-02T05:34:05.816Z,99.99
2018-06-02T05:35:05.880Z,99.99
2018-06-02T05:36:05.948Z,99.99
2018-06-02T05:37:06.020Z,99.99
2018-06-02T05:38:06.096Z,99.99
2018-06-02T05:39:06.144Z,99.99
2018-06-02T05:40:06.208Z,99.99
2018-06-02T05:41:06.277Z,99.99
2018-06-02T05:42:06.348Z,99.99
2018-06-02T05:43:06.412Z,99.99
2018-06-02T05:44:06.516Z,99.99
2018-06-02T05:45:06.539Z,99.99
2018-06-02T05:46:06.604Z,99.99
2018-06-02T05:47:06.676Z,99.99
2018-06-02T05:48:06.740Z,99.99
2018-06-02T05:49:06.801Z,99.99
2018-06-02T05:50:06.865Z,99.99
2018-06-02T05:51:06.933Z,99.99
2018-06-02T05:52:07.005Z,99.99
2018-06-02T05:53:07.068Z,99.99
2018-06-02T05:54:07.129Z,99.99
2018-06-02T05:55:07.193Z,99.99
2018-06-02T05:56:07.256Z,99.99
2018-06-02T05:57:07.331Z,99.99
2018-06-02T05:58:07.507Z,99.99
2018-06-02T05:59:07.457Z,99.99
2018-06-02T06:00:07.524Z,99.99
2018-06-02T06:01:07.592Z,99.99
2018-06-02T06:02:07.653Z,99.99
2018-06-02T06:03:07.725Z,99.99
2018-06-02T06:04:07.793Z,99.99
2018-06-02T06:05:07.852Z,99.99
2018-06-02T06:06:07.919Z,99.99
2018-06-02T06:07:07.981Z,99.99
2018-06-02T06:08:08.053Z,99.99
2018-06-02T06:09:08.121Z,99.99
2018-06-02T06:10:08.177Z,99.99
2018-06-02T06:11:08.245Z,99.99
2018-06-02T06:12:08.309Z,99.99
2018-06-02T06:13:08.401Z,99.99
2018-06-02T06:14:08.441Z,99.99
2018-06-02T06:15:08.511Z,99.99
2018-06-02T06:16:08.574Z,99.99
2018-06-02T06:17:08.643Z,99.99
2018-06-02T06:18:08.711Z,99.99
2018-06-02T06:19:08.777Z,99.99
2018-06-02T06:20:08.842Z,99.99
2018-06-02T06:21:08.901Z,99.99
2018-06-02T06:22:08.965Z,99.99
2018-06-02T06:23:09.042Z,99.99
2018-06-02T06:24:09.106Z,99.99
2018-06-02T06:25:09.167Z,99.99
2018-06-02T06:26:09.230Z,99.99
2018-06-02T06:27:09.298Z,99.99
2018-06-02T06:28:09.518Z,99.99
2018-06-02T06:29:09.430Z,99.99
2018-06-02T06:30:09.494Z,99.99
2018-06-02T06:31:09.561Z,99.99
2018-06-02T06:32:09.628Z,99.99
2018-06-02T06:33:09.743Z,99.99
2018-06-02T06:34:09.762Z,99.99
2018-06-02T06:35:09.822Z,99.99
2018-06-02T06:36:09.890Z,99.99
2018-06-02T06:37:09.954Z,99.99
2018-06-02T06:38:10.027Z,99.99
2018-06-02T06:39:10.148Z,99.99
2018-06-02T06:40:10.150Z,99.99
2018-06-02T06:41:10.219Z,99.99
2018-06-02T06:42:10.283Z,99.99
2018-06-02T06:43:10.367Z,99.99
2018-06-02T06:44:10.431Z,99.99
2018-06-02T06:45:10.486Z,99.99
2018-06-02T06:46:10.547Z,99.99
2018-06-02T06:47:10.619Z,99.99
2018-06-02T06:48:10.687Z,99.99
2018-06-02T06:49:10.757Z,99.99
2018-06-02T06:50:10.811Z,99.99
2018-06-02T06:51:10.891Z,99.99
2018-06-02T06:52:10.947Z,99.99
2018-06-02T06:53:11.019Z,99.99
2018-06-02T06:54:11.083Z,99.99
2018-06-02T06:55:11.144Z,99.99
2018-06-02T06:56:11.215Z,99.99
2018-06-02T06:57:11.276Z,99.99
2018-06-02T06:58:11.347Z,99.99
2018-06-02T06:59:11.416Z,99.99
2018-06-02T07:00:11.475Z,99.99
2018-06-02T07:01:11.545Z,99.99
2018-06-02T07:02:11.608Z,99.99
2018-06-02T07:03:11.680Z,99.99
2018-06-02T07:04:11.748Z,99.99
2018-06-02T07:05:11.807Z,99.99
2018-06-02T07:06:11.872Z,99.99
2018-06-02T07:07:11.935Z,99.99
2018-06-02T07:08:12.012Z,99.99
2018-06-02T07:09:12.080Z,99.99
2018-06-02T07:10:12.140Z,99.99
2018-06-02T07:11:12.204Z,99.99
2018-06-02T07:12:12.280Z,99.99
2018-06-02T07:13:12.352Z,99.99
2018-06-02T07:14:12.410Z,99.99
2018-06-02T07:15:12.472Z,99.99
2018-06-02T07:16:12.536Z,99.99
2018-06-02T07:17:12.604Z,99.99
2018-06-02T07:18:12.676Z,99.99
2018-06-02T07:19:12.745Z,99.99
2018-06-02T07:20:12.804Z,99.99
2018-06-02T07:21:12.868Z,99.99
2018-06-02T07:22:12.938Z,99.99
2018-06-02T07:23:13.009Z,99.99
2018-06-02T07:24:13.077Z,99.99
2018-06-02T07:25:13.137Z,99.99
2018-06-02T07:26:13.201Z,99.99
2018-06-02T07:27:13.269Z,99.99
2018-06-02T07:28:13.489Z,99.99
2018-06-02T07:29:13.405Z,99.99
2018-06-02T07:30:13.468Z,99.99
2018-06-02T07:31:13.533Z,99.99
2018-06-02T07:32:13.601Z,99.99
2018-06-02T07:33:13.669Z,99.99
2018-06-02T07:34:13.737Z,99.99
2018-06-02T07:35:13.801Z,99.99
2018-06-02T07:36:13.865Z,99.99
2018-06-02T07:37:13.933Z,99.99
2018-06-02T07:38:14.005Z,99.99
2018-06-02T07:39:14.073Z,99.99
2018-06-02T07:40:14.133Z,99.99
2018-06-02T07:41:14.198Z,99.99
2018-06-02T07:42:14.269Z,99.99
2018-06-02T07:43:14.337Z,99.99
2018-06-02T07:44:14.430Z,99.99
2018-06-02T07:45:14.465Z,99.99
2018-06-02T07:46:14.530Z,99.99
2018-06-02T07:47:14.597Z,99.99
2018-06-02T07:48:14.669Z,99.99
2018-06-02T07:49:14.742Z,99.99
2018-06-02T07:50:14.798Z,99.99
2018-06-02T07:51:14.861Z,99.99
2018-06-02T07:52:14.930Z,99.99
2018-06-02T07:53:15.010Z,99.99
2018-06-02T07:54:15.070Z,99.88
2018-06-02T07:55:15.130Z,99.99
2018-06-02T07:56:15.201Z,99.99
2018-06-02T07:57:15.270Z,99.99
2018-06-02T07:58:15.334Z,99.99
2018-06-02T07:59:15.417Z,99.99
2018-06-02T08:00:15.466Z,99.99
2018-06-02T08:01:15.530Z,99.88
2018-06-02T08:02:15.598Z,99.99
2018-06-02T08:03:15.670Z,98.68
2018-06-02T08:04:15.742Z,98.58
2018-06-02T08:05:15.806Z,99.26
2018-06-02T08:06:15.866Z,97.04
2018-06-02T08:07:15.934Z,98.77
2018-06-02T08:08:16.003Z,99.35
2018-06-02T08:09:16.222Z,98.68
2018-06-02T08:10:16.135Z,96.94
2018-06-02T08:11:16.203Z,96.94
2018-06-02T08:12:16.271Z,96.42
2018-06-02T08:13:16.343Z,95.55
2018-06-02T08:14:16.411Z,95.69
2018-06-02T08:15:16.479Z,95.60
2018-06-02T08:16:16.539Z,96.94
2018-06-02T08:17:16.606Z,96.46
2018-06-02T08:18:16.686Z,96.89
2018-06-02T08:19:16.750Z,97.33
2018-06-02T08:20:16.827Z,96.75
2018-06-02T08:21:16.883Z,96.75
2018-06-02T08:22:16.943Z,96.46
2018-06-02T08:23:17.011Z,96.85
2018-06-02T08:24:17.394Z,97.14
2018-06-02T08:25:17.147Z,96.27
2018-06-02T08:26:17.220Z,96.75
2018-06-02T08:27:17.283Z,96.17
2018-06-02T08:28:17.353Z,94.92
2018-06-02T08:29:17.423Z,94.06
2018-06-02T08:30:17.516Z,95.31
2018-06-02T08:31:17.555Z,94.92
2018-06-02T08:32:17.620Z,94.64
2018-06-02T08:33:17.703Z,93.87
2018-06-02T08:34:17.759Z,94.25
2018-06-02T08:35:17.830Z,94.15
2018-06-02T08:36:17.891Z,93.87
2018-06-02T08:37:17.965Z,96.32
2018-06-02T08:38:18.024Z,95.79
2018-06-02T08:39:18.116Z,96.75
2018-06-02T08:40:18.160Z,97.04
2018-06-02T08:41:18.227Z,95.45
2018-06-02T08:42:18.296Z,93.24
2018-06-02T08:43:18.365Z,93.43
2018-06-02T08:44:18.435Z,91.99
2018-06-02T08:45:18.503Z,93.81
2018-06-02T08:46:18.568Z,93.33
2018-06-02T08:47:18.631Z,94.06
2018-06-02T08:48:18.700Z,93.28
2018-06-02T08:49:18.780Z,92.03
2018-06-02T08:50:18.843Z,90.48
2018-06-02T08:51:18.904Z,92.08
2018-06-02T08:52:18.973Z,90.53
2018-06-02T08:53:19.040Z,89.67
2018-06-02T08:54:19.153Z,89.95
2018-06-02T08:55:19.178Z,89.95
2018-06-02T08:56:19.244Z,90.63
2018-06-02T08:57:19.312Z,90.63
2018-06-02T08:58:19.380Z,90.82
2018-06-02T08:59:19.457Z,89.57
2018-06-02T09:00:19.536Z,90.39
2018-06-02T09:01:19.585Z,90.10
2018-06-02T09:02:19.652Z,91.16
2018-06-02T09:03:19.720Z,90.30
2018-06-02T09:04:19.797Z,90.97
2018-06-02T09:05:19.872Z,92.22
2018-06-02T09:06:19.925Z,92.08
2018-06-02T09:07:20.000Z,92.18
2018-06-02T09:08:20.061Z,92.85
2018-06-02T09:09:20.129Z,93.57
2018-06-02T09:10:20.313Z,93.09
2018-06-02T09:11:20.267Z,92.03
2018-06-02T09:12:20.337Z,91.06
2018-06-02T09:13:20.405Z,91.83
2018-06-02T09:14:20.469Z,91.06
2018-06-02T09:15:20.545Z,92.61
2018-06-02T09:16:20.613Z,91.12
2018-06-02T09:17:20.677Z,91.99
2018-06-02T09:18:20.745Z,92.18
2018-06-02T09:19:20.817Z,92.27
2018-06-02T09:20:20.885Z,92.18
2018-06-02T09:21:20.957Z,92.37
2018-06-02T09:22:21.018Z,94.01
2018-06-02T09:23:21.085Z,93.33
2018-06-02T09:24:21.153Z,92.94
2018-06-02T09:25:21.239Z,92.85
2018-06-02T09:26:21.289Z,92.18
2018-06-02T09:27:21.363Z,91.31
2018-06-02T09:28:21.432Z,92.08
2018-06-02T09:29:21.498Z,93.33
2018-06-02T09:30:21.567Z,93.29
2018-06-02T09:31:21.634Z,93.87
2018-06-02T09:32:21.698Z,94.87
2018-06-02T09:33:21.766Z,93.62
2018-06-02T09:34:21.842Z,94.10
2018-06-02T09:35:21.910Z,94.97
2018-06-02T09:36:21.974Z,93.81
2018-06-02T09:37:22.038Z,94.49
2018-06-02T09:38:22.106Z,93.81
2018-06-02T09:39:22.174Z,93.62
2018-06-02T09:40:22.362Z,94.63
2018-06-02T09:41:22.310Z,92.90
2018-06-02T09:42:22.381Z,91.98
2018-06-02T09:43:22.449Z,89.32
2018-06-02T09:44:22.514Z,88.17
2018-06-02T09:45:22.587Z,89.71
2018-06-02T09:46:22.654Z,87.68
2018-06-02T09:47:22.718Z,89.23
2018-06-02T09:48:22.786Z,87.78
2018-06-02T09:49:22.854Z,86.96
2018-06-02T09:50:22.926Z,88.79
2018-06-02T09:51:22.995Z,89.14
2018-06-02T09:52:23.059Z,89.04
2018-06-02T09:53:23.127Z,89.43
2018-06-02T09:54:23.195Z,90.30
2018-06-02T09:55:23.367Z,90.48
2018-06-02T09:56:23.336Z,89.43
2018-06-02T09:57:23.398Z,89.57
2018-06-02T09:58:23.467Z,88.70
2018-06-02T09:59:23.550Z,87.68
2018-06-02T10:00:23.607Z,87.40
2018-06-02T10:01:23.679Z,85.94
2018-06-02T10:02:23.739Z,85.08
2018-06-02T10:03:23.807Z,86.62
2018-06-02T10:04:23.883Z,88.07
2018-06-02T10:05:23.951Z,86.72
2018-06-02T10:06:24.019Z,87.49
2018-06-02T10:07:24.089Z,86.96
2018-06-02T10:08:24.152Z,87.06
2018-06-02T10:09:24.228Z,87.35
2018-06-02T10:10:24.304Z,87.59
2018-06-02T10:11:24.358Z,87.74
2018-06-02T10:12:24.432Z,87.16
2018-06-02T10:13:24.492Z,87.35
2018-06-02T10:14:24.560Z,86.48
2018-06-02T10:15:24.635Z,86.33
2018-06-02T10:16:24.704Z,86.47
2018-06-02T10:17:24.768Z,85.89
2018-06-02T10:18:24.836Z,82.06
2018-06-02T10:19:24.904Z,82.25
2018-06-02T10:20:24.980Z,80.01
2018-06-02T10:21:25.052Z,78.08
2018-06-02T10:22:25.108Z,77.26
2018-06-02T10:23:25.180Z,77.94
2018-06-02T10:24:25.252Z,82.39
2018-06-02T10:25:25.316Z,79.68
2018-06-02T10:26:25.540Z,76.49
2018-06-02T10:27:25.456Z,77.17
2018-06-02T10:28:25.528Z,77.84
2018-06-02T10:29:25.597Z,78.67
2018-06-02T10:30:25.661Z,75.39
2018-06-02T10:31:25.768Z,78.29
2018-06-02T10:32:25.888Z,78.29
2018-06-02T10:33:25.865Z,78.58
2018-06-02T10:34:25.941Z,80.84
2018-06-02T10:35:26.075Z,78.61
2018-06-02T10:36:26.077Z,77.45
2018-06-02T10:37:26.297Z,76.97
2018-06-02T10:38:26.217Z,78.91
2018-06-02T10:39:26.289Z,77.26
2018-06-02T10:40:26.357Z,78.81
2018-06-02T10:41:26.433Z,77.71
2018-06-02T10:42:26.501Z,77.90
2018-06-02T10:43:26.577Z,78.09
2018-06-02T10:44:26.678Z,78.96
2018-06-02T10:45:26.705Z,78.29
2018-06-02T10:46:26.773Z,78.09
2018-06-02T10:47:26.865Z,78.48
2018-06-02T10:48:26.920Z,78.96
2018-06-02T10:49:26.989Z,77.51
2018-06-02T10:50:27.054Z,75.39
2018-06-02T10:51:27.121Z,76.74
2018-06-02T10:52:27.386Z,77.32
2018-06-02T10:53:27.261Z,76.55
2018-06-02T10:54:27.329Z,77.80
2018-06-02T10:55:27.401Z,78.38
2018-06-02T10:56:27.473Z,78.23
2018-06-02T10:57:27.545Z,77.13
2018-06-02T10:58:27.649Z,76.35
2018-06-02T10:59:27.678Z,77.42
2018-06-02T11:00:27.758Z,78.44
2018-06-02T11:01:27.817Z,78.92
2018-06-02T11:02:27.893Z,78.77
2018-06-02T11:03:27.970Z,79.31
2018-06-02T11:04:28.022Z,78.54
2018-06-02T11:05:28.098Z,79.78
2018-06-02T11:06:28.177Z,77.36
2018-06-02T11:07:28.390Z,76.10
2018-06-02T11:08:28.308Z,77.01
2018-06-02T11:09:28.378Z,75.02
2018-06-02T11:10:28.438Z,74.53
2018-06-02T11:11:28.514Z,73.43
2018-06-02T11:12:28.594Z,74.30
2018-06-02T11:13:28.655Z,74.55
2018-06-02T11:14:28.727Z,76.14
2018-06-02T11:15:28.799Z,73.72
2018-06-02T11:16:28.862Z,73.18
2018-06-02T11:17:28.959Z,73.99
2018-06-02T11:18:29.019Z,72.09
2018-06-02T11:19:29.109Z,70.44
2018-06-02T11:20:29.148Z,69.67
2018-06-02T11:21:29.211Z,69.47
2018-06-02T11:22:29.303Z,70.05
2018-06-02T11:23:29.355Z,68.92
2018-06-02T11:24:29.437Z,69.99
2018-06-02T11:25:29.491Z,70.31
2018-06-02T11:26:29.563Z,69.15
2018-06-02T11:27:29.639Z,70.51
2018-06-02T11:28:29.707Z,67.60
2018-06-02T11:29:29.771Z,70.61
2018-06-02T11:30:29.843Z,68.47
2018-06-02T11:31:29.911Z,68.28
2018-06-02T11:32:29.999Z,67.95
2018-06-02T11:33:30.059Z,68.54
2018-06-02T11:34:30.123Z,69.60
2018-06-02T11:35:30.199Z,65.59
2018-06-02T11:36:30.268Z,66.37
2018-06-02T11:37:30.351Z,68.05
2018-06-02T11:38:30.407Z,68.43
2018-06-02T11:39:30.473Z,69.89
2018-06-02T11:40:30.543Z,70.53
2018-06-02T11:41:30.615Z,72.17
2018-06-02T11:42:30.691Z,72.08
2018-06-02T11:43:30.763Z,72.52
2018-06-02T11:44:30.823Z,74.17
2018-06-02T11:45:30.899Z,75.97
2018-06-02T11:46:30.964Z,76.78
2018-06-02T11:47:31.040Z,75.00
2018-06-02T11:48:31.120Z,74.23
2018-06-02T11:49:31.173Z,76.16
2018-06-02T11:50:31.248Z,74.04
2018-06-02T11:51:31.311Z,74.17
2018-06-02T11:52:31.403Z,74.40
2018-06-02T11:53:31.458Z,72.46
2018-06-02T11:54:31.524Z,73.75
2018-06-02T11:55:31.592Z,70.70
2018-06-02T11:56:31.660Z,70.01
2018-06-02T11:57:31.739Z,70.50
2018-06-02T11:58:31.810Z,69.11
2018-06-02T11:59:31.872Z,69.89
2018-06-02T12:00:31.940Z,68.49
2018-06-02T12:01:32.012Z,69.04
2018-06-02T12:02:32.188Z,71.40
2018-06-02T12:03:32.153Z,70.14
2018-06-02T12:04:32.220Z,70.47
2018-06-02T12:05:32.293Z,70.56
2018-06-02T12:06:32.363Z,70.89
2018-06-02T12:07:32.437Z,72.34
2018-06-02T12:08:32.512Z,69.76
2018-06-02T12:09:32.573Z,67.88
2018-06-02T12:10:32.641Z,68.85
2018-06-02T12:11:32.713Z,68.37
2018-06-02T12:12:32.789Z,68.18
2018-06-02T12:13:32.861Z,67.30
2018-06-02T12:14:32.921Z,67.50
2018-06-02T12:15:32.998Z,67.18
2018-06-02T12:16:33.069Z,66.69
2018-06-02T12:17:33.241Z,66.63
2018-06-02T12:18:33.205Z,68.56
2018-06-02T12:19:33.273Z,66.72
2018-06-02T12:20:33.364Z,68.40
2018-06-02T12:21:33.413Z,66.34
2018-06-02T12:22:33.497Z,65.95
2018-06-02T12:23:33.561Z,64.53
2018-06-02T12:24:33.625Z,63.91
2018-06-02T12:25:33.698Z,64.07
2018-06-02T12:26:33.766Z,66.89
2018-06-02T12:27:33.845Z,66.79
2018-06-02T12:28:33.914Z,66.11
2018-06-02T12:29:33.978Z,67.66
2018-06-02T12:30:34.050Z,69.54
2018-06-02T12:31:34.121Z,67.11
2018-06-02T12:32:34.347Z,64.98
2018-06-02T12:33:34.262Z,65.24
2018-06-02T12:34:34.330Z,64.37
2018-06-02T12:35:34.401Z,65.34
2018-06-02T12:36:34.474Z,63.46
2018-06-02T12:37:34.550Z,64.82
2018-06-02T12:38:34.622Z,65.79
2018-06-02T12:39:34.685Z,67.69
2018-06-02T12:40:34.761Z,67.53
2018-06-02T12:41:34.830Z,65.47
2018-06-02T12:42:34.902Z,67.69
2018-06-02T12:43:34.974Z,68.27
2018-06-02T12:44:35.041Z,68.73
2018-06-02T12:45:35.110Z,68.24
2018-06-02T12:46:35.179Z,67.66
2018-06-02T12:47:35.409Z,68.57
2018-06-02T12:48:35.324Z,68.37
2018-06-02T12:49:35.391Z,67.73
2018-06-02T12:50:35.463Z,67.14
2018-06-02T12:51:35.530Z,67.11
2018-06-02T12:52:35.611Z,65.66
2018-06-02T12:53:35.683Z,66.50